createdAt,value
2022-10-08T00:01:36.082Z,101075.97
2022-10-08T00:04:03.413Z,101064.94
2022-10-08T00:06:32.686Z,101063.41
2022-10-08T00:09:10.395Z,101072.91
2022-10-08T00:11:40.024Z,101066.28
2022-10-08T00:14:09.411Z,101063.91
2022-10-08T00:16:41.881Z,101060.66
2022-10-08T00:19:17.087Z,101067.13
2022-10-08T00:21:51.096Z,101066.09
2022-10-08T00:24:19.163Z,101063.78
2022-10-08T00:26:49.471Z,101067.34
2022-10-08T00:29:22.526Z,101062.97
2022-10-08T00:31:52.082Z,101057.00
2022-10-08T00:34:27.578Z,101053.94
2022-10-08T00:36:55.906Z,101067.72
2022-10-08T00:39:25.087Z,101061.41
2022-10-08T00:41:55.636Z,101050.53
2022-10-08T00:44:53.646Z,101057.00
2022-10-08T00:47:32.778Z,101043.41
2022-10-08T00:50:08.684Z,101053.44
2022-10-08T00:52:59.604Z,101043.09
2022-10-08T00:55:29.815Z,101040.38
2022-10-08T00:58:01.216Z,101035.06
2022-10-08T01:00:31.682Z,101036.25
2022-10-08T01:03:03.306Z,101034.06
2022-10-08T01:06:15.933Z,101020.97
2022-10-08T01:09:18.899Z,101025.41
2022-10-08T01:11:49.902Z,101020.31
2022-10-08T01:14:41.587Z,101024.38
2022-10-08T01:17:39.245Z,101023.69
2022-10-08T01:20:45.207Z,101016.91
2022-10-08T01:23:59.646Z,101011.81
2022-10-08T01:26:38.365Z,101005.03
2022-10-08T01:29:45.728Z,101002.66
2022-10-08T01:32:20.776Z,101001.28
2022-10-08T01:35:02.748Z,101011.81
2022-10-08T01:37:41.926Z,100997.72
2022-10-08T01:40:20.422Z,101002.31
2022-10-08T01:42:49.890Z,100999.56
2022-10-08T01:45:24.972Z,100996.50
2022-10-08T01:47:54.827Z,100988.03
2022-10-08T01:50:34.287Z,100997.38
2022-10-08T01:53:11.525Z,100988.22
2022-10-08T01:55:48.265Z,100987.69
2022-10-08T01:58:28.952Z,100988.72
2022-10-08T02:01:02.588Z,100988.34
2022-10-08T02:03:31.719Z,100979.22
2022-10-08T02:06:03.587Z,100990.75
2022-10-08T02:08:32.977Z,100982.25
2022-10-08T02:11:00.002Z,100982.94
2022-10-08T02:13:30.425Z,100979.19
2022-10-08T02:16:08.406Z,100988.03
2022-10-08T02:18:48.021Z,100981.09
2022-10-08T02:21:35.052Z,100982.97
2022-10-08T02:24:11.274Z,100984.31
2022-10-08T02:26:46.252Z,100973.25
2022-10-08T02:29:22.498Z,100973.94
2022-10-08T02:32:40.047Z,100983.63
2022-10-08T02:35:25.478Z,100975.13
2022-10-08T02:38:11.449Z,100965.28
2022-10-08T02:40:45.901Z,100966.09
2022-10-08T02:43:23.811Z,100964.94
2022-10-08T02:46:17.233Z,100960.81
2022-10-08T02:48:57.318Z,100956.09
2022-10-08T02:51:29.195Z,100952.66
2022-10-08T02:53:59.946Z,100961.13
2022-10-08T02:56:39.553Z,100954.38
2022-10-08T02:59:10.738Z,100961.66
2022-10-08T03:01:58.812Z,100968.31
2022-10-08T03:04:36.352Z,100975.81
2022-10-08T03:07:06.988Z,100970.72
2022-10-08T03:09:51.656Z,100970.72
2022-10-08T03:12:19.154Z,100960.53
2022-10-08T03:14:49.644Z,100978.34
2022-10-08T03:17:40.033Z,100964.75
2022-10-08T03:20:10.813Z,100969.19
2022-10-08T03:22:40.640Z,100969.19
2022-10-08T03:25:10.709Z,100970.72
2022-10-08T03:27:39.991Z,100964.25
2022-10-08T03:30:10.437Z,100982.28
2022-10-08T03:32:37.226Z,100980.56
2022-10-08T03:35:04.343Z,100965.25
2022-10-08T03:37:33.434Z,100961.56
2022-10-08T03:40:00.306Z,100962.75
2022-10-08T03:42:29.617Z,100969.19
2022-10-08T03:45:01.285Z,100971.22
2022-10-08T03:47:28.102Z,100959.34
2022-10-08T03:49:54.978Z,100970.56
2022-10-08T03:52:21.934Z,100976.47
2022-10-08T03:54:48.733Z,100973.78
2022-10-08T03:57:15.647Z,100977.19
2022-10-08T03:59:42.496Z,100964.94
2022-10-08T04:02:14.076Z,100962.75
2022-10-08T04:04:45.992Z,100970.38
2022-10-08T04:07:12.838Z,100970.19
2022-10-08T04:09:39.731Z,100961.81
2022-10-08T04:12:06.625Z,100962.66
2022-10-08T04:14:35.710Z,100968.56
2022-10-08T04:17:02.595Z,100973.94
2022-10-08T04:19:35.690Z,100960.44
2022-10-08T04:22:02.522Z,100964.50
2022-10-08T04:24:31.575Z,100962.75
2022-10-08T04:27:00.682Z,100968.47
2022-10-08T04:29:28.730Z,100959.34
2022-10-08T04:32:00.585Z,100952.31
2022-10-08T04:34:32.054Z,100950.91
2022-10-08T04:36:58.844Z,100958.66
2022-10-08T04:39:28.675Z,100967.84
2022-10-08T04:42:01.643Z,100960.78
2022-10-08T04:44:28.490Z,100957.50
2022-10-08T04:46:57.640Z,100962.88
2022-10-08T04:49:25.898Z,100957.78
2022-10-08T04:51:55.854Z,100965.88
2022-10-08T04:54:28.242Z,100961.56
2022-10-08T04:56:55.115Z,100957.69
2022-10-08T04:59:21.930Z,100958.94
2022-10-08T05:01:52.782Z,100962.34
2022-10-08T05:04:22.678Z,100967.69
2022-10-08T05:06:49.885Z,100969.91
2022-10-08T05:09:16.761Z,100962.75
2022-10-08T05:11:43.673Z,100971.94
2022-10-08T05:14:10.480Z,100972.38
2022-10-08T05:16:37.595Z,100972.47
2022-10-08T05:19:05.271Z,100969.50
2022-10-08T05:21:32.664Z,100976.97
2022-10-08T05:24:07.645Z,100983.81
2022-10-08T05:29:24.825Z,100987.91
2022-10-08T05:31:51.684Z,100986.69
2022-10-08T05:34:18.517Z,100985.94
2022-10-08T05:36:45.571Z,100983.09
2022-10-08T05:39:12.374Z,100984.72
2022-10-08T05:41:39.288Z,100985.94
2022-10-08T05:44:08.291Z,100982.88
2022-10-08T05:46:36.650Z,100984.44
2022-10-08T05:49:10.902Z,100991.34
2022-10-08T05:51:40.240Z,100986.72
2022-10-08T05:54:07.066Z,101006.56
2022-10-08T05:56:36.228Z,101019.00
2022-10-08T05:59:03.055Z,101015.47
2022-10-08T06:01:34.099Z,101008.41
2022-10-08T06:04:08.783Z,101018.28
2022-10-08T06:06:40.816Z,101015.56
2022-10-08T06:09:10.233Z,101029.53
2022-10-08T06:11:41.091Z,101035.47
2022-10-08T06:14:14.613Z,101026.91
2022-10-08T06:16:46.092Z,101030.78
2022-10-08T06:19:13.565Z,101034.22
2022-10-08T06:21:40.479Z,101050.56
2022-10-08T06:24:11.325Z,101053.41
2022-10-08T06:26:40.659Z,101056.63
2022-10-08T06:29:14.306Z,101050.38
2022-10-08T06:31:46.645Z,101063.75
2022-10-08T06:34:13.649Z,101071.25
2022-10-08T06:36:40.675Z,101063.31
2022-10-08T06:39:12.543Z,101065.94
2022-10-08T06:41:42.653Z,101051.94
2022-10-08T06:44:15.744Z,101047.84
2022-10-08T06:46:43.126Z,101052.63
2022-10-08T06:49:12.826Z,101061.06
2022-10-08T06:51:39.667Z,101066.56
2022-10-08T06:54:08.334Z,101058.38
2022-10-08T06:56:40.196Z,101058.72
2022-10-08T06:59:07.894Z,101052.56
2022-10-08T07:01:36.057Z,101059.44
2022-10-08T07:04:06.968Z,101081.38
2022-10-08T07:06:36.152Z,101084.44
2022-10-08T07:09:04.973Z,101088.31
2022-10-08T07:11:33.396Z,101109.66
2022-10-08T07:14:02.700Z,101101.34
2022-10-08T07:16:29.784Z,101091.53
2022-10-08T07:18:59.838Z,101083.53
2022-10-08T07:21:32.709Z,101093.53
2022-10-08T07:24:01.076Z,101084.38
2022-10-08T07:26:32.706Z,101103.66
2022-10-08T07:29:12.063Z,101104.44
2022-10-08T07:31:40.068Z,101106.63
2022-10-08T07:34:11.508Z,101119.63
2022-10-08T07:36:39.799Z,101117.38
2022-10-08T07:39:18.823Z,101128.13
2022-10-08T07:41:49.607Z,101126.59
2022-10-08T07:44:17.759Z,101127.63
2022-10-08T07:46:53.364Z,101124.03
2022-10-08T07:49:24.758Z,101130.94
2022-10-08T07:51:55.988Z,101127.19
2022-10-08T07:54:24.247Z,101134.13
2022-10-08T07:56:51.260Z,101140.06
2022-10-08T07:59:18.097Z,101148.34
2022-10-08T08:01:45.236Z,101151.66
2022-10-08T08:04:14.943Z,101159.66
2022-10-08T08:06:48.609Z,101166.75
2022-10-08T08:09:16.294Z,101163.38
2022-10-08T08:11:43.299Z,101180.44
2022-10-08T08:14:10.326Z,101167.78
2022-10-08T08:16:38.052Z,101177.97
2022-10-08T08:19:05.244Z,101183.13
2022-10-08T08:21:38.135Z,101185.66
2022-10-08T08:24:13.595Z,101178.72
2022-10-08T08:26:42.877Z,101179.84
2022-10-08T08:29:25.694Z,101185.78
2022-10-08T08:31:52.648Z,101190.53
2022-10-08T08:34:25.116Z,101193.81
2022-10-08T08:36:56.585Z,101198.19
2022-10-08T08:39:26.727Z,101197.97
2022-10-08T08:41:58.289Z,101199.81
2022-10-08T08:44:44.242Z,101206.38
2022-10-08T08:47:27.370Z,101205.47
2022-10-08T08:50:19.787Z,101205.69
2022-10-08T08:52:46.831Z,101208.97
2022-10-08T08:55:18.089Z,101214.91
2022-10-08T08:57:54.256Z,101215.19
2022-10-08T09:00:25.854Z,101216.91
2022-10-08T09:03:13.846Z,101217.13
2022-10-08T09:05:45.349Z,101223.59
2022-10-08T09:08:34.918Z,101215.81
2022-10-08T09:11:04.570Z,101220.56
2022-10-08T09:13:51.040Z,101225.03
2022-10-08T09:16:18.916Z,101226.28
2022-10-08T09:18:49.383Z,101232.03
2022-10-08T09:21:17.479Z,101234.09
2022-10-08T09:23:45.007Z,101228.59
2022-10-08T09:26:23.124Z,101230.84
2022-10-08T09:29:00.914Z,101242.13
2022-10-08T09:31:40.068Z,101236.41
2022-10-08T09:34:13.321Z,101244.75
2022-10-08T09:36:45.845Z,101246.38
2022-10-08T09:39:23.986Z,101236.13
2022-10-08T09:42:23.242Z,101242.41
2022-10-08T09:44:51.458Z,101235.22
2022-10-08T09:47:21.460Z,101249.09
2022-10-08T09:50:19.224Z,101231.09
2022-10-08T09:52:53.283Z,101253.75
2022-10-08T09:55:35.208Z,101255.13
2022-10-08T09:58:04.093Z,101252.28
2022-10-08T10:00:41.381Z,101252.66
2022-10-08T10:03:17.502Z,101260.53
2022-10-08T10:05:51.191Z,101255.94
2022-10-08T10:08:58.673Z,101265.00
2022-10-08T10:11:39.843Z,101262.13
2022-10-08T10:14:41.666Z,101255.59
2022-10-08T10:17:30.509Z,101259.66
2022-10-08T10:20:12.326Z,101250.25
2022-10-08T10:22:53.511Z,101257.59
2022-10-08T10:25:38.919Z,101256.25
2022-10-08T10:28:27.449Z,101249.16
2022-10-08T10:31:05.069Z,101259.03
2022-10-08T10:33:56.332Z,101257.88
2022-10-08T10:36:27.116Z,101256.69
2022-10-08T10:39:35.600Z,101266.47
2022-10-08T10:42:23.372Z,101262.72
2022-10-08T10:45:18.623Z,101264.81
2022-10-08T10:47:45.578Z,101262.09
2022-10-08T10:50:14.450Z,101259.81
2022-10-08T10:53:17.465Z,101256.38
2022-10-08T10:56:21.704Z,101256.63
2022-10-08T10:59:09.307Z,101264.63
2022-10-08T11:02:21.089Z,101270.09
2022-10-08T11:05:20.535Z,101281.00
2022-10-08T11:08:25.511Z,101293.22
2022-10-08T11:10:57.317Z,101286.41
2022-10-08T11:14:06.608Z,101291.63
2022-10-08T11:17:07.192Z,101288.97
2022-10-08T11:19:59.375Z,101288.44
2022-10-08T11:23:07.386Z,101295.88
2022-10-08T11:26:14.083Z,101296.13
2022-10-08T11:29:01.902Z,101278.75
2022-10-08T11:31:46.455Z,101279.97
2022-10-08T11:34:24.390Z,101285.53
2022-10-08T11:37:24.095Z,101294.50
2022-10-08T11:40:38.841Z,101292.47
2022-10-08T11:43:27.537Z,101284.31
2022-10-08T11:46:36.691Z,101286.84
2022-10-08T11:49:25.230Z,101288.13
2022-10-08T11:51:54.052Z,101298.84
2022-10-08T11:54:34.786Z,101296.88
2022-10-08T11:57:18.310Z,101286.38
2022-10-08T12:00:36.177Z,101298.06
2022-10-08T12:03:27.410Z,101297.50
2022-10-08T12:06:24.691Z,101302.53
2022-10-08T12:09:01.422Z,101300.34
2022-10-08T12:11:35.453Z,101305.91
2022-10-08T12:14:11.772Z,101301.06
2022-10-08T12:16:47.854Z,101307.88
2022-10-08T12:19:33.630Z,101311.94
2022-10-08T12:22:03.892Z,101302.56
2022-10-08T12:24:39.816Z,101308.53
2022-10-08T12:27:18.749Z,101305.94
2022-10-08T12:30:13.010Z,101305.88
2022-10-08T12:32:39.897Z,101306.19
2022-10-08T12:36:02.183Z,101294.50
2022-10-08T12:38:53.055Z,101288.72
2022-10-08T12:41:33.724Z,101295.28
2022-10-08T12:45:07.232Z,101294.16
2022-10-08T12:48:05.269Z,101290.88
2022-10-08T12:50:58.800Z,101300.75
2022-10-08T12:53:27.932Z,101304.22
2022-10-08T12:55:57.737Z,101305.81
2022-10-08T12:58:35.165Z,101296.13
2022-10-08T13:01:04.595Z,101303.47
2022-10-08T13:03:33.841Z,101300.47
2022-10-08T13:06:28.392Z,101310.19
2022-10-08T13:08:58.596Z,101308.97
2022-10-08T13:11:27.572Z,101312.72
2022-10-08T13:13:56.584Z,101315.16
2022-10-08T13:16:26.807Z,101315.16
2022-10-08T13:18:58.347Z,101309.31
2022-10-08T13:21:31.153Z,101311.06
2022-10-08T13:23:59.275Z,101312.59
2022-10-08T13:26:48.245Z,101320.84
2022-10-08T13:29:24.238Z,101340.94
2022-10-08T13:32:14.658Z,101326.78
2022-10-08T13:34:41.409Z,101324.16
2022-10-08T13:37:38.209Z,101326.53
2022-10-08T13:40:12.465Z,101338.75
2022-10-08T13:42:53.340Z,101334.84
2022-10-08T13:45:31.668Z,101341.88
2022-10-08T13:47:59.215Z,101344.34
2022-10-08T13:50:26.155Z,101354.44
2022-10-08T13:52:56.182Z,101345.63
2022-10-08T13:55:33.969Z,101362.09
2022-10-08T13:58:05.445Z,101354.50
2022-10-08T14:00:36.391Z,101342.72
2022-10-08T14:03:03.618Z,101354.25
2022-10-08T14:05:39.816Z,101365.41
2022-10-08T14:08:20.887Z,101361.28
2022-10-08T14:10:48.112Z,101365.28
2022-10-08T14:13:18.489Z,101360.28
2022-10-08T14:15:45.405Z,101363.78
2022-10-08T14:18:14.408Z,101374.38
2022-10-08T14:20:41.401Z,101369.16
2022-10-08T14:23:12.086Z,101390.81
2022-10-08T14:25:38.937Z,101386.53
2022-10-08T14:28:05.904Z,101390.13
2022-10-08T14:30:32.851Z,101394.91
2022-10-08T14:33:04.061Z,101391.69
2022-10-08T14:35:32.499Z,101396.78
2022-10-08T14:37:59.390Z,101400.13
2022-10-08T14:40:28.818Z,101408.56
2022-10-08T14:42:55.654Z,101398.47
2022-10-08T14:45:22.915Z,101408.78
2022-10-08T14:47:51.942Z,101427.09
2022-10-08T14:50:18.769Z,101426.44
2022-10-08T14:52:45.865Z,101437.25
2022-10-08T14:55:15.683Z,101435.13
2022-10-08T14:57:47.165Z,101434.38
2022-10-08T15:00:16.921Z,101438.47
2022-10-08T15:02:46.554Z,101436.75
2022-10-08T15:05:15.567Z,101448.94
2022-10-08T15:07:47.267Z,101452.00
2022-10-08T15:10:16.745Z,101451.47
2022-10-08T15:12:50.976Z,101458.22
2022-10-08T15:15:19.763Z,101463.94
2022-10-08T15:17:47.530Z,101467.16
2022-10-08T15:20:15.467Z,101461.72
2022-10-08T15:22:42.606Z,101469.50
2022-10-08T15:25:09.852Z,101466.84
2022-10-08T15:27:39.150Z,101472.63
2022-10-08T15:30:06.903Z,101468.34
2022-10-08T15:32:37.202Z,101471.44
2022-10-08T15:35:04.274Z,101473.97
2022-10-08T15:37:33.632Z,101474.03
2022-10-08T15:40:00.482Z,101467.59
2022-10-08T15:42:31.897Z,101479.53
2022-10-08T15:44:58.700Z,101477.44
2022-10-08T15:47:25.584Z,101483.00
2022-10-08T15:49:52.534Z,101492.75
2022-10-08T15:52:21.542Z,101492.00
2022-10-08T15:54:53.523Z,101504.50
2022-10-08T15:57:20.371Z,101507.00
2022-10-08T15:59:49.666Z,101514.63
2022-10-08T16:02:19.169Z,101521.72
2022-10-08T16:04:49.594Z,101524.19
2022-10-08T16:07:19.341Z,101528.63
2022-10-08T16:09:46.265Z,101530.81
2022-10-08T16:12:18.062Z,101531.34
2022-10-08T16:14:47.421Z,101540.16
2022-10-08T16:17:14.337Z,101546.06
2022-10-08T16:19:42.006Z,101541.00
2022-10-08T16:22:08.890Z,101543.63
2022-10-08T16:24:35.720Z,101553.47
2022-10-08T16:27:04.824Z,101547.00
2022-10-08T16:29:31.730Z,101549.31
2022-10-08T16:31:58.773Z,101556.53
2022-10-08T16:34:28.670Z,101552.78
2022-10-08T16:36:55.666Z,101566.13
2022-10-08T16:39:24.361Z,101572.69
2022-10-08T16:41:51.344Z,101580.06
2022-10-08T16:44:20.534Z,101582.13
2022-10-08T16:46:51.177Z,101592.22
2022-10-08T16:49:25.473Z,101601.81
2022-10-08T16:52:02.317Z,101604.53
2022-10-08T16:54:30.309Z,101604.72
2022-10-08T16:56:58.884Z,101608.97
2022-10-08T16:59:27.885Z,101617.25
2022-10-08T17:01:57.954Z,101625.78
2022-10-08T17:04:27.893Z,101621.66
2022-10-08T17:06:57.516Z,101625.16
2022-10-08T17:09:26.615Z,101633.66
2022-10-08T17:11:58.626Z,101636.28
2022-10-08T17:14:29.464Z,101636.84
2022-10-08T17:16:56.349Z,101641.97
2022-10-08T17:19:23.196Z,101651.69
2022-10-08T17:21:52.251Z,101649.06
2022-10-08T17:24:26.156Z,101646.66
2022-10-08T17:26:55.688Z,101650.88
2022-10-08T17:29:22.475Z,101654.66
2022-10-08T17:31:49.352Z,101655.88
2022-10-08T17:34:20.692Z,101661.63
2022-10-08T17:36:48.726Z,101659.09
2022-10-08T17:39:17.842Z,101665.25
2022-10-08T17:41:44.835Z,101666.63
2022-10-08T17:44:12.314Z,101662.84
2022-10-08T17:46:46.853Z,101671.19
2022-10-08T17:49:20.399Z,101681.28
2022-10-08T17:51:51.111Z,101675.47
2022-10-08T17:54:20.385Z,101680.25
2022-10-08T17:56:48.803Z,101684.19
2022-10-08T17:59:18.254Z,101685.03
2022-10-08T18:01:47.608Z,101690.13
2022-10-08T18:04:19.548Z,101697.13
2022-10-08T18:06:47.853Z,101696.94
2022-10-08T18:09:20.416Z,101706.31
2022-10-08T18:11:52.162Z,101705.63
2022-10-08T18:14:20.875Z,101713.97
2022-10-08T18:16:50.696Z,101712.78
2022-10-08T18:19:20.819Z,101718.72
2022-10-08T18:21:50.081Z,101727.56
2022-10-08T18:24:19.653Z,101724.88
2022-10-08T18:26:49.093Z,101738.16
2022-10-08T18:29:17.849Z,101733.03
2022-10-08T18:31:46.672Z,101733.38
2022-10-08T18:34:17.577Z,101743.34
2022-10-08T18:36:45.305Z,101743.38
2022-10-08T18:39:15.501Z,101746.47
2022-10-08T18:41:47.561Z,101749.06
2022-10-08T18:44:21.994Z,101747.28
2022-10-08T18:46:49.543Z,101749.84
2022-10-08T18:49:20.002Z,101750.53
2022-10-08T18:51:51.946Z,101759.59
2022-10-08T18:54:18.810Z,101765.63
2022-10-08T18:56:48.162Z,101766.03
2022-10-08T18:59:16.912Z,101764.38
2022-10-08T19:01:49.233Z,101782.78
2022-10-08T19:04:20.128Z,101778.38
2022-10-08T19:06:49.344Z,101763.88
2022-10-08T19:09:16.905Z,101782.91
2022-10-08T19:11:51.217Z,101778.81
2022-10-08T19:14:21.848Z,101786.16
2022-10-08T19:16:52.502Z,101785.31
2022-10-08T19:19:25.363Z,101792.16
2022-10-08T19:21:54.294Z,101795.03
2022-10-08T19:24:26.022Z,101804.75
2022-10-08T19:26:58.249Z,101798.44
2022-10-08T19:29:31.896Z,101796.22
2022-10-08T19:31:58.826Z,101801.88
2022-10-08T19:34:29.434Z,101801.28
2022-10-08T19:36:56.947Z,101809.88
2022-10-08T19:39:28.020Z,101824.78
2022-10-08T19:41:58.134Z,101827.94
2022-10-08T19:44:27.293Z,101827.28
2022-10-08T19:46:54.194Z,101836.81
2022-10-08T19:49:22.076Z,101838.19
2022-10-08T19:51:49.115Z,101838.09
2022-10-08T19:54:16.514Z,101836.81
2022-10-08T19:56:43.850Z,101846.31
2022-10-08T19:59:13.426Z,101841.25
2022-10-08T20:01:41.778Z,101836.38
2022-10-08T20:04:10.135Z,101841.31
2022-10-08T20:06:42.206Z,101844.78
2022-10-08T20:09:14.567Z,101844.78
2022-10-08T20:11:48.049Z,101849.03
2022-10-08T20:14:15.302Z,101845.53
2022-10-08T20:16:45.590Z,101858.78
2022-10-08T20:19:19.553Z,101864.22
2022-10-08T20:21:48.367Z,101868.34
2022-10-08T20:24:16.631Z,101873.78
2022-10-08T20:26:44.562Z,101868.75
2022-10-08T20:29:15.974Z,101866.25
2022-10-08T20:31:55.344Z,101872.47
2022-10-08T20:34:30.955Z,101872.78
2022-10-08T20:36:59.120Z,101872.72
2022-10-08T20:39:28.322Z,101877.59
2022-10-08T20:41:59.520Z,101880.78
2022-10-08T20:44:26.455Z,101878.44
2022-10-08T20:46:54.257Z,101880.00
2022-10-08T20:49:21.405Z,101888.88
2022-10-08T20:51:48.505Z,101883.56
2022-10-08T20:54:16.811Z,101894.50
2022-10-08T20:56:44.072Z,101890.22
2022-10-08T20:59:16.593Z,101896.50
2022-10-08T21:01:46.791Z,101902.75
2022-10-08T21:04:16.331Z,101897.38
2022-10-08T21:06:46.968Z,101897.38
2022-10-08T21:09:15.590Z,101900.13
2022-10-08T21:11:45.740Z,101905.72
2022-10-08T21:14:17.460Z,101909.34
2022-10-08T21:16:44.437Z,101911.53
2022-10-08T21:19:18.762Z,101912.22
2022-10-08T21:21:45.589Z,101911.81
2022-10-08T21:24:12.489Z,101922.34
2022-10-08T21:26:41.644Z,101918.47
2022-10-08T21:29:14.995Z,101928.91
2022-10-08T21:31:46.547Z,101918.69
2022-10-08T21:34:13.683Z,101925.06
2022-10-08T21:36:41.816Z,101921.59
2022-10-08T21:39:16.117Z,101922.69
2022-10-08T21:41:43.658Z,101924.34
2022-10-08T21:44:10.780Z,101921.19
2022-10-08T21:46:41.106Z,101930.34
2022-10-08T21:49:20.567Z,101935.19
2022-10-08T21:51:47.543Z,101936.28
2022-10-08T21:54:15.842Z,101938.41
2022-10-08T21:56:46.465Z,101939.31
2022-10-08T21:59:15.490Z,101937.19
2022-10-08T22:01:50.587Z,101930.25
2022-10-08T22:04:25.418Z,101922.69
2022-10-08T22:07:01.716Z,101938.72
2022-10-08T22:09:31.729Z,101933.19
2022-10-08T22:12:03.719Z,101929.03
2022-10-08T22:14:32.073Z,101936.00
2022-10-08T22:17:06.867Z,101928.03
2022-10-08T22:19:36.230Z,101939.19
2022-10-08T22:22:03.820Z,101936.44
2022-10-08T22:24:33.694Z,101937.38
2022-10-08T22:27:02.173Z,101938.31
2022-10-08T22:29:29.317Z,101937.50
2022-10-08T22:31:56.822Z,101938.50
2022-10-08T22:34:24.122Z,101941.81
2022-10-08T22:36:53.500Z,101946.41
2022-10-08T22:39:20.324Z,101946.94
2022-10-08T22:41:47.098Z,101944.94
2022-10-08T22:44:13.920Z,101949.22
2022-10-08T22:46:40.836Z,101942.78
2022-10-08T22:49:12.855Z,101944.63
2022-10-08T22:51:39.831Z,101944.97
2022-10-08T22:54:07.195Z,101953.78
2022-10-08T22:56:34.312Z,101956.94
2022-10-08T22:59:01.321Z,101958.94
2022-10-08T23:01:32.015Z,101963.22
2022-10-08T23:04:01.467Z,101962.66
2022-10-08T23:06:38.196Z,101969.25
2022-10-08T23:09:08.182Z,101970.97
2022-10-08T23:11:35.131Z,101963.00
2022-10-08T23:14:05.176Z,101974.56
2022-10-08T23:16:34.119Z,101970.13
2022-10-08T23:19:09.146Z,101967.84
2022-10-08T23:21:37.011Z,101972.56
2022-10-08T23:24:06.945Z,101964.84
2022-10-08T23:26:36.047Z,101966.13
2022-10-08T23:29:05.706Z,101965.69
2022-10-08T23:31:35.900Z,101969.53
2022-10-08T23:34:03.702Z,101969.13
2022-10-08T23:36:34.511Z,101966.69
2022-10-08T23:39:05.362Z,101970.56
2022-10-08T23:41:32.357Z,101974.72
2022-10-08T23:44:01.916Z,101974.13
2022-10-08T23:46:33.645Z,101968.13
2022-10-08T23:49:03.012Z,101975.09
2022-10-08T23:51:32.005Z,101985.00
2022-10-08T23:53:59.054Z,101984.13
2022-10-08T23:56:28.471Z,101980.25
2022-10-08T23:58:55.339Z,101988.81
